Time;durP1;ratioP1;P1;durP2;ratioP2;P2;SDS_P1;SDS_P2;PMS_P1;PMS_P2;Temp;Humidity;BMP_temperature;BMP_pressure;BME280_temperature;BME280_humidity;BME280_pressure;Samples;Min_cycle;Max_cycle;Signal;HPM_P1;HPM_P2
2022/08/15 00:01:16;;;;;;;18.73;12.05;;;20.40;99.90;;;;;;4954557;28;20393;-72
2022/08/15 00:03:48;;;;;;;19.13;13.23;;;20.40;99.90;;;;;;4954505;28;20050;-72
2022/08/15 00:06:24;;;;;;;;;;;20.40;99.90;;;;;;4954842;28;20031;-74
2022/08/15 00:08:53;;;;;;;19.48;12.88;;;;;;;;;;4954572;29;19917;-74
2022/08/15 00:11:26;;;;;;;19.55;12.63;;;20.30;99.90;;;;;;4953735;28;20027;-71
2022/08/15 00:13:58;;;;;;;17.95;12.05;;;20.20;99.90;;;;;;4953715;28;20031;-73
2022/08/15 00:16:24;;;;;;;25.63;12.65;;;20.30;99.90;;;;;;4954310;28;20028;-73
2022/08/15 00:18:50;;;;;;;19.25;13.07;;;20.40;99.90;;;;;;4954474;28;20054;-73
2022/08/15 00:21:19;;;;;;;20.75;12.90;;;20.30;99.90;;;;;;4953592;28;20481;-72
2022/08/15 00:23:44;;;;;;;19.60;13.27;;;20.40;99.90;;;;;;4949365;28;20473;-73
2022/08/15 00:26:12;;;;;;;19.17;13.25;;;20.30;99.90;;;;;;4952495;28;20035;-67
2022/08/15 00:28:37;;;;;;;17.63;11.77;;;20.30;99.90;;;;;;4954363;28;20113;-74
2022/08/15 00:31:05;;;;;;;17.48;11.75;;;20.30;99.90;;;;;;4985539;28;20130;-65
2022/08/15 00:33:32;;;;;;;19.13;12.73;;;20.10;99.90;;;;;;4953333;28;20035;-68
2022/08/15 00:35:58;;;;;;;19.30;12.25;;;20.00;99.90;;;;;;4952618;28;20118;-74
2022/08/15 00:38:27;;;;;;;20.73;12.95;;;19.90;99.90;;;;;;4953000;28;20020;-65
2022/08/15 00:43:48;;;;;;;19.67;12.93;;;19.90;99.90;;;;;;4966697;28;20134;-74
2022/08/15 00:46:16;;;;;;;20.50;12.73;;;19.90;99.90;;;;;;4952975;29;20039;-73
2022/08/15 00:48:42;;;;;;;19.60;12.70;;;20.00;99.90;;;;;;4953670;28;20042;-74
2022/08/15 00:51:18;;;;;;;21.50;13.40;;;20.00;99.90;;;;;;4982873;28;20035;-68
2022/08/15 00:53:52;;;;;;;16.77;12.18;;;20.00;99.90;;;;;;4983428;28;20740;-70
2022/08/15 00:56:19;;;;;;;25.73;13.23;;;19.90;99.90;;;;;;4966696;28;20178;-63
2022/08/15 00:58:46;;;;;;;19.88;12.23;;;19.90;99.90;;;;;;4952237;28;20429;-73
2022/08/15 01:01:15;;;;;;;19.00;12.75;;;19.80;99.90;;;;;;4952815;28;20031;-73
2022/08/15 01:03:44;;;;;;;17.33;11.73;;;19.90;99.90;;;;;;4967404;28;20020;-64
2022/08/15 01:06:11;;;;;;;19.27;12.27;;;19.90;99.90;;;;;;4983639;28;20035;-70
2022/08/15 01:08:40;;;;;;;19.38;12.05;;;19.90;99.90;;;;;;4966597;28;20031;-74
2022/08/15 01:11:50;;;;;;;19.80;12.57;;;19.90;99.90;;;;;;4951979;28;20513;-72
2022/08/15 01:14:17;;;;;;;18.45;12.27;;;19.90;99.90;;;;;;4965549;28;20050;-74
2022/08/15 01:16:43;;;;;;;18.67;11.82;;;19.80;99.90;;;;;;4953651;28;20019;-74
2022/08/15 01:19:17;;;;;;;21.85;13.95;;;19.80;99.90;;;;;;4953597;28;20482;-74
2022/08/15 01:21:49;;;;;;;18.90;12.07;;;19.70;99.90;;;;;;4953611;28;20030;-73
2022/08/15 01:24:37;;;;;;;21.67;12.18;;;19.80;99.90;;;;;;4952990;28;20486;-73
2022/08/15 01:27:03;;;;;;;16.27;11.02;;;19.70;99.90;;;;;;4956413;28;20122;-73
2022/08/15 01:29:29;;;;;;;16.20;11.65;;;19.70;99.90;;;;;;4985078;28;20038;-74
2022/08/15 01:31:56;;;;;;;17.90;12.32;;;19.70;99.90;;;;;;4952505;28;20031;-72
2022/08/15 01:34:22;;;;;;;17.10;11.57;;;19.60;99.90;;;;;;4957082;28;20030;-74
2022/08/15 01:36:49;;;;;;;18.30;12.73;;;19.60;99.90;;;;;;4987912;28;20494;-74
2022/08/15 01:39:39;;;;;;;22.83;11.43;;;19.60;99.90;;;;;;4988020;28;20481;-73
2022/08/15 01:42:29;;;;;;;18.38;12.05;;;19.60;99.90;;;;;;4973010;28;20047;-73
2022/08/15 01:45:08;;;;;;;18.88;11.68;;;19.60;99.90;;;;;;4971512;28;20078;-72
2022/08/15 01:47:57;;;;;;;20.10;12.32;;;19.60;99.90;;;;;;4956182;28;20035;-70
2022/08/15 01:50:26;;;;;;;18.13;12.27;;;19.60;99.90;;;;;;4972318;28;20055;-68
2022/08/15 01:53:07;;;;;;;19.33;12.63;;;19.60;99.90;;;;;;4972439;28;20573;-69
2022/08/15 01:56:03;;;;;;;18.58;13.48;;;19.60;99.90;;;;;;4955965;28;20050;-74
2022/08/15 01:58:38;;;;;;;18.15;12.77;;;19.60;99.90;;;;;;4956048;28;20090;-73
2022/08/15 02:01:08;;;;;;;17.60;12.23;;;19.50;99.90;;;;;;4972391;28;20031;-74
2022/08/15 02:03:38;;;;;;;18.35;11.35;;;19.50;99.90;;;;;;4971843;28;20035;-75
2022/08/15 02:06:12;;;;;;;20.40;13.43;;;19.50;99.90;;;;;;4971643;28;20473;-73
2022/08/15 02:08:41;;;;;;;20.35;12.38;;;19.40;99.90;;;;;;4955896;28;20030;-73
2022/08/15 02:11:12;;;;;;;21.23;13.25;;;19.40;99.90;;;;;;4972158;28;20081;-74
2022/08/15 02:13:43;;;;;;;20.48;12.82;;;19.30;99.90;;;;;;4971867;28;20061;-74
2022/08/15 02:16:10;;;;;;;18.95;12.95;;;19.30;99.90;;;;;;4972200;28;20525;-74
2022/08/15 02:18:36;;;;;;;19.33;14.00;;;19.30;99.90;;;;;;4967681;28;20525;-70
2022/08/15 02:21:02;;;;;;;20.92;14.23;;;19.20;99.90;;;;;;4985981;28;20142;-72
2022/08/15 02:23:28;;;;;;;20.85;12.65;;;19.20;99.90;;;;;;4969973;28;20015;-74
2022/08/15 02:25:54;;;;;;;19.55;13.05;;;19.20;99.90;;;;;;4967924;28;20444;-72
2022/08/15 02:28:23;;;;;;;20.80;13.27;;;19.10;99.90;;;;;;4969669;28;20090;-74
2022/08/15 02:30:51;;;;;;;20.27;12.10;;;19.00;99.90;;;;;;4969543;28;20500;-74
2022/08/15 02:33:16;;;;;;;21.08;13.43;;;19.00;99.90;;;;;;4954718;28;20386;-71
2022/08/15 02:35:43;;;;;;;18.67;11.90;;;19.10;99.90;;;;;;4985660;28;20478;-75
2022/08/15 02:38:09;;;;;;;19.75;12.43;;;19.10;99.90;;;;;;4985586;28;20027;-74
2022/08/15 02:40:36;;;;;;;20.20;13.63;;;19.20;99.90;;;;;;4984819;28;20030;-73
2022/08/15 02:43:08;;;;;;;16.98;11.55;;;19.20;99.90;;;;;;4954693;28;20028;-71
2022/08/15 02:45:38;;;;;;;20.35;13.50;;;19.20;99.90;;;;;;4985147;28;20075;-73
2022/08/15 02:48:10;;;;;;;18.17;12.90;;;19.10;99.90;;;;;;4985766;28;20035;-73
2022/08/15 02:50:39;;;;;;;18.98;13.43;;;19.20;99.90;;;;;;4969372;28;20035;-74
2022/08/15 02:53:17;;;;;;;21.48;13.35;;;19.20;99.90;;;;;;4954530;28;20049;-73
2022/08/15 02:55:46;;;;;;;19.60;14.27;;;19.10;99.90;;;;;;4969316;28;20027;-74
2022/08/15 02:58:15;;;;;;;18.48;12.45;;;19.10;99.90;;;;;;4969040;28;20576;-74
2022/08/15 03:00:42;;;;;;;19.13;13.20;;;19.10;99.90;;;;;;4969273;28;20430;-72
2022/08/15 03:03:14;;;;;;;19.83;13.10;;;19.00;99.90;;;;;;4969384;28;20082;-73
2022/08/15 03:05:45;;;;;;;20.25;12.45;;;19.00;99.90;;;;;;4969417;28;20033;-74
2022/08/15 03:08:12;;;;;;;19.38;12.77;;;19.00;99.90;;;;;;4972557;28;20035;-74
2022/08/15 03:10:40;;;;;;;21.77;13.00;;;19.00;99.90;;;;;;4985231;28;20489;-74
2022/08/15 03:13:15;;;;;;;19.27;13.45;;;19.00;99.90;;;;;;4985029;28;20536;-73
2022/08/15 03:15:53;;;;;;;23.23;12.57;;;19.00;99.90;;;;;;4954194;28;20029;-73
2022/08/15 03:18:21;;;;;;;20.80;13.20;;;19.00;99.90;;;;;;4968789;28;20031;-74
2022/08/15 03:20:51;;;;;;;20.10;12.52;;;19.00;99.90;;;;;;4952617;28;20082;-69
2022/08/15 03:23:25;;;;;;;17.48;11.50;;;19.00;99.90;;;;;;4968800;28;20069;-74
2022/08/15 03:25:53;;;;;;;19.95;13.60;;;19.00;99.90;;;;;;4953880;28;20074;-73
2022/08/15 03:28:23;;;;;;;27.33;12.88;;;19.00;99.90;;;;;;4968502;28;20034;-74
2022/08/15 03:30:50;;;;;;;21.48;14.32;;;19.00;99.90;;;;;;4968694;28;20023;-73
2022/08/15 03:33:17;;;;;;;22.13;14.82;;;19.00;99.90;;;;;;4984398;28;20055;-74
2022/08/15 03:35:52;;;;;;;19.73;12.23;;;19.00;99.90;;;;;;4984696;28;20377;-73
2022/08/15 03:38:20;;;;;;;19.48;12.68;;;18.90;99.90;;;;;;4968705;28;20114;-74
2022/08/15 03:40:48;;;;;;;23.77;15.18;;;18.80;99.90;;;;;;4953548;28;20027;-74
2022/08/15 03:43:28;;;;;;;21.10;14.15;;;18.80;99.90;;;;;;4983993;28;20042;-74
2022/08/15 03:46:02;;;;;;;20.17;12.75;;;18.90;99.90;;;;;;4984681;28;20051;-74
2022/08/15 03:48:32;;;;;;;20.25;13.25;;;18.90;99.90;;;;;;4953628;28;20023;-73
2022/08/15 03:51:01;;;;;;;20.63;13.15;;;19.00;99.90;;;;;;4953187;28;20102;-74
2022/08/15 03:53:36;;;;;;;22.50;13.45;;;19.00;99.90;;;;;;4984303;28;20094;-74
2022/08/15 03:56:05;;;;;;;18.60;13.18;;;19.00;99.90;;;;;;4982625;28;20035;-73
2022/08/15 03:58:35;;;;;;;24.98;14.95;;;19.00;99.90;;;;;;4967766;28;20023;-73
2022/08/15 04:01:07;;;;;;;22.48;15.65;;;19.10;99.90;;;;;;4968108;28;20038;-70
2022/08/15 04:03:34;;;;;;;24.63;16.30;;;19.20;99.90;;;;;;4983881;28;20027;-72
2022/08/15 04:06:07;;;;;;;19.90;14.13;;;19.60;99.90;;;;;;4952645;28;20414;-73
2022/08/15 04:08:36;;;;;;;21.25;13.07;;;19.90;99.90;;;;;;4983890;28;20485;-73
2022/08/15 04:11:05;;;;;;;18.25;12.50;;;20.10;99.90;;;;;;4952693;29;20039;-72
2022/08/15 04:13:34;;;;;;;20.25;13.68;;;20.30;99.90;;;;;;4952679;28;20035;-71
2022/08/15 04:16:02;;;;;;;19.38;12.05;;;20.60;99.90;;;;;;4951463;29;20078;-70
2022/08/15 04:18:29;;;;;;;19.52;12.45;;;21.10;99.90;;;;;;4966645;28;20031;-73
2022/08/15 04:20:57;;;;;;;20.42;12.90;;;21.40;99.90;;;;;;4967357;28;20047;-71
2022/08/15 04:23:24;;;;;;;17.67;12.30;;;21.90;99.90;;;;;;4967675;28;20034;-73
2022/08/15 04:25:51;;;;;;;19.73;11.82;;;22.20;99.90;;;;;;4983868;28;20024;-71
2022/08/15 04:28:19;;;;;;;18.77;11.43;;;22.50;99.90;;;;;;4983882;28;20501;-73
2022/08/15 04:30:47;;;;;;;20.17;11.52;;;23.10;99.90;;;;;;4952714;28;20022;-72
2022/08/15 04:33:20;;;;;;;19.00;12.52;;;23.40;99.90;;;;;;4983952;28;20046;-74
2022/08/15 04:35:49;;;;;;;17.58;10.75;;;23.50;99.90;;;;;;4967581;28;20488;-72
2022/08/15 04:38:16;;;;;;;16.27;10.10;;;24.00;99.90;;;;;;4967444;28;20051;-72
2022/08/15 04:40:45;;;;;;;15.68;10.60;;;24.40;99.90;;;;;;4967331;28;20026;-72
2022/08/15 04:43:12;;;;;;;17.75;11.07;;;24.80;99.90;;;;;;4952242;28;20038;-72
2022/08/15 04:45:40;;;;;;;16.58;10.75;;;24.80;99.90;;;;;;4967506;28;20043;-72
2022/08/15 04:48:07;;;;;;;17.10;10.68;;;25.20;99.90;;;;;;4967774;28;20031;-72
2022/08/15 04:50:36;;;;;;;18.40;9.93;;;25.30;99.90;;;;;;4967740;28;20376;-72
2022/08/15 04:53:07;;;;;;;15.07;9.65;;;25.80;99.10;;;;;;4967507;28;20122;-72
2022/08/15 04:55:41;;;;;;;16.92;10.27;;;25.90;98.00;;;;;;4983749;28;20020;-74
2022/08/15 04:58:10;;;;;;;18.52;9.23;;;25.50;97.10;;;;;;4983705;28;20032;-72
2022/08/15 05:00:40;;;;;;;18.73;10.30;;;24.80;97.90;;;;;;4983712;28;20023;-72
2022/08/15 05:03:16;;;;;;;18.17;9.25;;;25.40;99.00;;;;;;4983431;28;20374;-74
2022/08/15 05:05:49;;;;;;;13.07;9.00;;;26.20;98.10;;;;;;4982985;28;20027;-73
2022/08/15 05:08:15;;;;;;;18.73;9.40;;;26.70;95.70;;;;;;4985283;28;20394;-72
2022/08/15 05:10:51;;;;;;;15.18;8.40;;;26.80;96.00;;;;;;4987757;28;20027;-74
2022/08/15 05:13:18;;;;;;;;;;;25.90;97.50;;;;;;4984685;28;20061;-73
2022/08/15 05:15:46;;;;;;;15.93;9.60;;;25.20;99.40;;;;;;4971162;28;20352;-72
2022/08/15 05:18:12;;;;;;;14.68;9.10;;;24.60;99.90;;;;;;4987305;28;20041;-73
2022/08/15 05:20:41;;;;;;;16.40;10.07;;;24.30;99.90;;;;;;4970884;28;20026;-72
2022/08/15 05:23:12;;;;;;;14.38;9.85;;;24.00;99.90;;;;;;4987294;28;20031;-73
2022/08/15 05:25:50;;;;;;;16.20;10.23;;;23.90;99.90;;;;;;4984677;28;20415;-73
2022/08/15 05:28:18;;;;;;;;;;;23.70;99.90;;;;;;4984556;28;20037;-72
2022/08/15 05:30:44;;;;;;;21.95;9.52;;;23.90;99.90;;;;;;4987334;28;19969;-73
2022/08/15 05:33:17;;;;;;;16.30;9.85;;;23.80;99.90;;;;;;4955767;28;20035;-73
2022/08/15 05:35:47;;;;;;;15.95;8.88;;;23.70;99.90;;;;;;4954491;29;20382;-72
2022/08/15 05:38:16;;;;;;;18.30;10.27;;;23.80;99.90;;;;;;4986785;28;20082;-73
2022/08/15 05:41:01;;;;;;;14.52;9.02;;;23.90;99.90;;;;;;4970493;28;20032;-73
2022/08/15 05:43:57;;;;;;;21.83;10.48;;;23.90;99.90;;;;;;4985038;28;20067;-73
2022/08/15 05:46:26;;;;;;;17.45;10.45;;;23.90;99.90;;;;;;4989095;28;20042;-72
2022/08/15 05:49:18;;;;;;;13.68;8.80;;;23.80;99.90;;;;;;4989933;28;20039;-74
2022/08/15 05:51:46;;;;;;;16.50;10.25;;;23.80;99.90;;;;;;4989009;28;20053;-72
2022/08/15 05:54:28;;;;;;;16.05;9.55;;;24.00;99.90;;;;;;4964780;28;20059;-71
2022/08/15 05:57:04;;;;;;;18.20;10.00;;;23.90;99.90;;;;;;4967409;28;20083;-71
2022/08/15 05:59:38;;;;;;;21.23;11.07;;;24.00;99.90;;;;;;4984859;28;20066;-68
2022/08/15 06:02:13;;;;;;;14.43;9.32;;;24.00;99.90;;;;;;4973111;28;20047;-68
2022/08/15 06:05:13;;;;;;;15.73;9.60;;;24.20;99.90;;;;;;4983124;28;20028;-71
2022/08/15 06:07:48;;;;;;;18.73;10.70;;;24.50;99.90;;;;;;4988143;28;20039;-73
2022/08/15 06:10:25;;;;;;;14.43;9.88;;;24.50;99.90;;;;;;4957013;28;20062;-72
2022/08/15 06:13:00;;;;;;;15.90;9.55;;;24.80;99.90;;;;;;4973050;28;20540;-73
2022/08/15 06:15:46;;;;;;;18.15;10.50;;;25.20;99.90;;;;;;4988155;28;20023;-73
2022/08/15 06:18:17;;;;;;;15.65;9.07;;;25.30;99.90;;;;;;4962949;28;20036;-73
2022/08/15 06:21:05;;;;;;;18.13;9.27;;;25.10;99.90;;;;;;4983224;28;20027;-74
2022/08/15 06:23:52;;;;;;;16.85;9.00;;;25.20;99.90;;;;;;4987068;28;20074;-73
2022/08/15 06:26:37;;;;;;;15.90;9.02;;;25.30;99.90;;;;;;4955256;29;20070;-73
2022/08/15 06:29:20;;;;;;;12.45;8.30;;;25.50;99.90;;;;;;4955206;29;20032;-73
2022/08/15 06:31:59;;;;;;;18.85;9.60;;;25.70;99.90;;;;;;4955290;29;20121;-73
2022/08/15 06:34:28;;;;;;;20.50;9.10;;;25.80;99.90;;;;;;4954957;28;20030;-73
2022/08/15 06:37:06;;;;;;;14.63;8.50;;;25.90;99.90;;;;;;4973323;28;20474;-74
2022/08/15 06:39:57;;;;;;;15.43;8.32;;;26.10;99.90;;;;;;4955128;28;20397;-73
2022/08/15 06:42:29;;;;;;;18.33;10.02;;;26.20;99.90;;;;;;4954333;29;20031;-73
2022/08/15 06:45:13;;;;;;;15.15;8.27;;;26.30;99.90;;;;;;4986671;28;20087;-72
2022/08/15 06:47:40;;;;;;;11.00;7.47;;;26.60;98.90;;;;;;4954526;29;20126;-74
2022/08/15 06:50:15;;;;;;;12.70;8.18;;;26.60;99.10;;;;;;4971059;28;20086;-74
2022/08/15 06:52:53;;;;;;;13.75;7.43;;;26.70;98.90;;;;;;4954645;29;20382;-74
2022/08/15 06:55:22;;;;;;;12.18;7.55;;;26.90;97.80;;;;;;4986828;28;20031;-71
2022/08/15 06:58:03;;;;;;;16.45;9.40;;;27.00;96.30;;;;;;4955815;28;20044;-74
2022/08/15 07:00:43;;;;;;;12.57;7.60;;;27.20;96.00;;;;;;4954766;28;20037;-73
2022/08/15 07:03:43;;;;;;;13.88;7.97;;;27.30;95.30;;;;;;4954135;29;20062;-73
2022/08/15 07:06:22;;;;;;;14.60;8.05;;;27.30;95.60;;;;;;4986356;28;20034;-72
2022/08/15 07:08:53;;;;;;;14.32;7.90;;;27.50;95.30;;;;;;4986007;28;20031;-70
2022/08/15 07:11:37;;;;;;;13.30;8.20;;;27.50;93.20;;;;;;4954641;28;20031;-71
2022/08/15 07:14:31;;;;;;;12.05;7.80;;;27.80;94.00;;;;;;4953968;29;20059;-72
2022/08/15 07:16:57;;;;;;;12.23;6.93;;;27.90;92.50;;;;;;4915797;29;20043;-75
2022/08/15 07:19:22;;;;;;;15.95;7.75;;;27.90;91.90;;;;;;4932352;29;20078;-73
2022/08/15 07:21:58;;;;;;;21.25;7.90;;;28.00;91.80;;;;;;4915702;29;20074;-72
2022/08/15 07:24:30;;;;;;;11.10;7.05;;;28.20;90.90;;;;;;4932054;29;20490;-73
2022/08/15 07:27:04;;;;;;;12.55;7.75;;;28.30;91.20;;;;;;4932835;28;20475;-70
2022/08/15 07:29:36;;;;;;;10.50;6.53;;;28.40;90.50;;;;;;4931771;29;20041;-74
2022/08/15 07:32:18;;;;;;;13.93;7.70;;;28.70;88.00;;;;;;4932740;29;20039;-73
2022/08/15 07:34:59;;;;;;;13.10;7.80;;;28.70;86.90;;;;;;4932592;29;20155;-73
2022/08/15 07:37:34;;;;;;;12.35;6.65;;;29.10;86.10;;;;;;4923457;29;20032;-72
2022/08/15 07:40:06;;;;;;;12.32;7.05;;;29.00;82.50;;;;;;4922126;29;20036;-73
2022/08/15 07:42:41;;;;;;;10.52;6.55;;;;;;;;;;4917355;29;20164;-74
2022/08/15 07:45:36;;;;;;;12.70;6.38;;;29.10;83.30;;;;;;4932473;29;20055;-73
2022/08/15 07:48:29;;;;;;;9.15;5.65;;;29.50;84.60;;;;;;4920814;29;20063;-74
2022/08/15 07:51:13;;;;;;;9.93;6.15;;;29.50;85.00;;;;;;4933228;29;20024;-71
2022/08/15 07:54:02;;;;;;;8.98;5.60;;;29.20;86.00;;;;;;4944829;28;20043;-74
2022/08/15 07:56:57;;;;;;;13.40;6.20;;;29.40;86.30;;;;;;4951370;28;20031;-73
2022/08/15 07:59:36;;;;;;;9.40;5.47;;;29.30;86.90;;;;;;4953021;28;20027;-73
2022/08/15 08:03:05;;;;;;;8.98;5.68;;;29.30;95.50;;;;;;4953446;28;20027;-72
2022/08/15 08:05:42;;;;;;;9.02;6.07;;;29.40;91.50;;;;;;4931185;29;20040;-73
2022/08/15 08:08:09;;;;;;;10.13;5.60;;;29.70;93.40;;;;;;4916358;29;20111;-74
2022/08/15 08:10:48;;;;;;;8.27;5.53;;;29.70;93.40;;;;;;4932606;29;20027;-71
2022/08/15 08:13:24;;;;;;;11.93;6.25;;;29.80;96.00;;;;;;4916910;29;20130;-73
2022/08/15 08:15:59;;;;;;;10.15;5.80;;;30.10;92.70;;;;;;4932789;29;20126;-73
2022/08/15 08:18:42;;;;;;;8.15;5.13;;;30.00;86.50;;;;;;4917202;29;20059;-74
2022/08/15 08:21:13;;;;;;;9.50;5.55;;;30.00;99.10;;;;;;4921712;29;20482;-73
2022/08/15 08:23:56;;;;;;;6.28;5.15;;;30.10;96.10;;;;;;4931697;29;20027;-74
2022/08/15 08:26:39;;;;;;;9.77;6.03;;;29.90;87.70;;;;;;4916110;29;20059;-73
2022/08/15 08:29:27;;;;;;;10.15;5.20;;;30.00;88.90;;;;;;4916992;29;20122;-71
2022/08/15 08:31:59;;;;;;;8.35;5.38;;;29.90;85.20;;;;;;4932940;29;20074;-71
2022/08/15 08:34:54;;;;;;;7.47;4.65;;;29.80;83.50;;;;;;4932985;28;20454;-74
2022/08/15 08:37:41;;;;;;;9.55;5.53;;;29.70;84.40;;;;;;4931278;29;20019;-67
2022/08/15 08:42:57;;;;;;;7.88;4.93;;;30.40;89.80;;;;;;4955373;28;20104;-72
2022/08/15 08:45:44;;;;;;;9.38;5.57;;;30.30;99.90;;;;;;4956659;28;20082;-63
2022/08/15 08:48:16;;;;;;;10.02;5.65;;;;;;;;;;4957864;28;20032;-63
2022/08/15 08:50:49;;;;;;;9.30;5.95;;;;;;;;;;4957372;29;20406;-71
2022/08/15 08:53:33;;;;;;;8.25;5.70;;;30.70;99.90;;;;;;4957982;28;20042;-72
2022/08/15 08:56:25;;;;;;;9.80;5.63;;;30.70;99.90;;;;;;4957609;28;20173;-71
2022/08/15 08:58:57;;;;;;;11.95;5.35;;;30.20;99.90;;;;;;4957793;28;20042;-63
2022/08/15 09:01:26;;;;;;;9.02;4.97;;;30.60;99.90;;;;;;4957565;28;20167;-73
2022/08/15 09:03:54;;;;;;;8.98;5.15;;;;;;;;;;4957680;28;20401;-73
2022/08/15 09:06:27;;;;;;;7.30;5.18;;;30.80;99.90;;;;;;4956716;29;20032;-72
2022/08/15 09:09:17;;;;;;;9.90;5.70;;;;;;;;;;4957110;28;20474;-73
2022/08/15 09:11:49;;;;;;;8.98;5.70;;;30.60;99.90;;;;;;4954050;28;20039;-74
2022/08/15 09:14:21;;;;;;;7.10;4.95;;;;;;;;;;4956796;29;20034;-73
2022/08/15 09:16:49;;;;;;;11.10;6.05;;;30.90;99.90;;;;;;4957181;29;20490;-73
2022/08/15 09:19:21;;;;;;;9.07;5.32;;;31.10;93.40;;;;;;4957633;28;20481;-71
2022/08/15 09:21:47;;;;;;;7.43;5.07;;;30.90;87.60;;;;;;4956373;28;20498;-67
2022/08/15 09:24:16;;;;;;;8.88;4.85;;;31.10;80.60;;;;;;4956838;28;20035;-73
2022/08/15 09:26:42;;;;;;;10.50;5.25;;;31.40;76.00;;;;;;4960421;28;20082;-74
2022/08/15 09:29:30;;;;;;;7.97;4.93;;;31.50;75.10;;;;;;4956393;28;20035;-73
2022/08/15 09:32:23;;;;;;;7.88;4.97;;;31.70;77.40;;;;;;4954909;28;20031;-73
2022/08/15 09:34:51;;;;;;;7.13;4.40;;;31.50;75.50;;;;;;4955453;28;20493;-70
2022/08/15 09:37:36;;;;;;;9.35;4.97;;;31.40;73.70;;;;;;4955013;28;20031;-73
2022/08/15 09:40:12;;;;;;;6.00;4.10;;;31.40;75.60;;;;;;4949575;29;20119;-73
2022/08/15 09:42:50;;;;;;;7.25;4.07;;;31.20;75.70;;;;;;4952616;28;20035;-73
2022/08/15 09:45:51;;;;;;;8.50;4.90;;;31.20;81.80;;;;;;4950772;28;20047;-73
2022/08/15 09:48:45;;;;;;;4.77;3.93;;;31.30;74.10;;;;;;4956602;28;20071;-74
2022/08/15 09:51:28;;;;;;;7.40;4.38;;;;;;;;;;4956402;28;20035;-73
2022/08/15 09:54:16;;;;;;;7.20;4.80;;;31.40;92.90;;;;;;4955807;28;20032;-74
2022/08/15 09:56:43;;;;;;;7.00;4.25;;;;;;;;;;4956539;28;20085;-71
2022/08/15 09:59:25;;;;;;;6.40;3.78;;;;;;;;;;4955369;28;20016;-73
2022/08/15 10:02:05;;;;;;;5.97;4.32;;;;;;;;;;4956089;29;20480;-73
2022/08/15 10:05:01;;;;;;;7.60;4.13;;;;;;;;;;4948898;28;20110;-64
2022/08/15 10:07:32;;;;;;;6.97;4.18;;;;;;;;;;4956300;28;20470;-73
2022/08/15 10:10:01;;;;;;;6.20;4.47;;;32.10;83.10;;;;;;4955377;28;20034;-71
2022/08/15 10:12:28;;;;;;;7.63;4.38;;;32.00;78.90;;;;;;4955028;28;20039;-73
2022/08/15 10:14:55;;;;;;;5.72;4.47;;;;;;;;;;4962761;28;20035;-73
2022/08/15 10:17:34;;;;;;;6.47;4.30;;;;;;;;;;4957130;28;20034;-72
2022/08/15 10:20:15;;;;;;;7.93;4.78;;;32.20;91.90;;;;;;4944634;28;20482;-70
2022/08/15 10:22:44;;;;;;;7.57;4.77;;;;;;;;;;4956281;28;20031;-73
2022/08/15 10:25:22;;;;;;;12.30;5.38;;;31.90;94.00;;;;;;4955376;28;20261;-72
2022/08/15 10:28:05;;;;;;;6.68;4.38;;;32.00;93.30;;;;;;4987401;28;20033;-70
2022/08/15 10:30:37;;;;;;;7.50;4.80;;;32.00;93.30;;;;;;4956403;28;20032;-73
2022/08/15 10:33:30;;;;;;;6.68;4.55;;;;;;;;;;4956666;28;20054;-73
2022/08/15 10:36:14;;;;;;;6.45;4.03;;;34.10;94.50;;;;;;4954889;29;20043;-73
2022/08/15 10:38:44;;;;;;;5.55;3.90;;;32.20;87.80;;;;;;4956233;28;20058;-73
2022/08/15 10:41:26;;;;;;;7.57;4.53;;;31.90;91.10;;;;;;4956391;28;20023;-73
2022/08/15 10:44:01;;;;;;;6.82;4.38;;;31.80;95.20;;;;;;4956272;28;20465;-73
2022/08/15 10:46:26;;;;;;;8.25;4.20;;;31.80;91.00;;;;;;4955849;28;20478;-71
2022/08/15 10:49:09;;;;;;;6.80;4.35;;;31.50;92.40;;;;;;4955459;28;20023;-72
2022/08/15 10:51:35;;;;;;;9.25;4.65;;;31.20;86.80;;;;;;4955572;28;20073;-72
2022/08/15 10:54:54;;;;;;;8.77;5.03;;;31.20;93.20;;;;;;4955277;28;20434;-72
2022/08/15 10:57:24;;;;;;;8.25;4.60;;;31.20;88.00;;;;;;4934542;29;20115;-71
2022/08/15 10:59:54;;;;;;;17.25;4.80;;;31.70;91.80;;;;;;4933640;29;20036;-71
2022/08/15 11:02:32;;;;;;;6.80;4.40;;;;;;;;;;4928863;29;20115;-72
2022/08/15 11:05:03;;;;;;;7.45;4.25;;;;;;;;;;4932141;29;20438;-72
2022/08/15 11:07:29;;;;;;;6.85;4.15;;;32.30;81.10;;;;;;4934516;29;20043;-70
2022/08/15 11:09:58;;;;;;;6.85;4.57;;;32.30;74.50;;;;;;4932315;29;20036;-72
2022/08/15 11:12:26;;;;;;;9.07;4.47;;;32.10;78.40;;;;;;4933534;29;20040;-74
2022/08/15 11:14:58;;;;;;;8.15;5.28;;;32.10;79.00;;;;;;4933920;29;20034;-73
2022/08/15 11:17:28;;;;;;;9.55;5.07;;;32.60;88.20;;;;;;4933972;29;20570;-73
2022/08/15 11:20:12;;;;;;;8.73;5.27;;;32.60;83.80;;;;;;4933808;29;20051;-72
2022/08/15 11:22:48;;;;;;;10.02;5.90;;;;;;;;;;4933364;29;20032;-73
2022/08/15 11:25:20;;;;;;;8.32;4.82;;;;;;;;;;4933742;29;20038;-72
2022/08/15 11:28:06;;;;;;;5.93;4.50;;;;;;;;;;4933094;29;20032;-73
2022/08/15 11:30:36;;;;;;;10.05;5.50;;;33.10;88.10;;;;;;4939951;28;20049;-72
2022/08/15 11:33:24;;;;;;;8.40;4.93;;;32.90;96.90;;;;;;4954681;28;20090;-72
2022/08/15 11:36:06;;;;;;;8.77;4.88;;;32.90;97.90;;;;;;4954638;28;20031;-71
2022/08/15 11:38:35;;;;;;;7.63;5.30;;;33.00;99.90;;;;;;4954906;28;20102;-72
2022/08/15 11:41:02;;;;;;;7.97;4.95;;;32.90;99.90;;;;;;4954445;28;20027;-72
2022/08/15 11:43:30;;;;;;;6.28;4.82;;;32.90;99.90;;;;;;4954176;28;20034;-72
2022/08/15 11:45:57;;;;;;;7.50;4.78;;;32.70;98.10;;;;;;4954983;28;20383;-73
2022/08/15 11:48:38;;;;;;;7.00;4.90;;;32.50;99.90;;;;;;4954980;28;20085;-72
2022/08/15 11:51:24;;;;;;;8.10;4.55;;;32.70;97.80;;;;;;4954867;28;20114;-72
2022/08/15 11:54:13;;;;;;;8.32;4.70;;;32.70;99.90;;;;;;4954532;28;20516;-72
2022/08/15 11:57:00;;;;;;;7.93;4.85;;;32.70;99.90;;;;;;4954899;28;20027;-72
2022/08/15 11:59:26;;;;;;;7.30;4.25;;;;;;;;;;4952061;28;20521;-71
2022/08/15 12:02:11;;;;;;;8.75;5.03;;;32.50;99.90;;;;;;4953805;28;20019;-72
2022/08/15 12:04:40;;;;;;;6.55;4.40;;;;;;;;;;4953897;29;20118;-71
2022/08/15 12:07:23;;;;;;;8.95;4.72;;;32.40;99.90;;;;;;4954462;29;20094;-72
2022/08/15 12:09:57;;;;;;;6.80;4.70;;;;;;;;;;4954294;28;20063;-71
2022/08/15 12:12:42;;;;;;;9.52;5.30;;;;;;;;;;4945925;29;20035;-72
2022/08/15 12:15:13;;;;;;;7.72;4.75;;;;;;;;;;4954272;28;20043;-69
2022/08/15 12:17:45;;;;;;;7.03;4.57;;;;;;;;;;4954484;28;20042;-71
2022/08/15 12:20:11;;;;;;;7.25;4.95;;;;;;;;;;4954607;29;20042;-71
2022/08/15 12:22:39;;;;;;;7.40;4.93;;;;;;;;;;4954328;29;20418;-67
2022/08/15 12:25:07;;;;;;;10.57;5.20;;;;;;;;;;4953643;29;20110;-72
2022/08/15 12:27:35;;;;;;;7.40;5.10;;;;;;;;;;4954553;29;20489;-72
2022/08/15 12:30:04;;;;;;;8.05;5.22;;;;;;;;;;4954021;29;20030;-71
2022/08/15 12:32:32;;;;;;;7.93;4.72;;;;;;;;;;4954055;29;20039;-69
2022/08/15 12:34:58;;;;;;;8.05;4.88;;;;;;;;;;4954155;28;20067;-70
2022/08/15 12:37:26;;;;;;;7.00;4.78;;;;;;;;;;4954501;29;20031;-71
2022/08/15 12:39:55;;;;;;;6.78;4.70;;;;;;;;;;4953827;28;20032;-71
2022/08/15 12:42:30;;;;;;;6.25;4.85;;;;;;;;;;4953623;29;20405;-70
2022/08/15 12:44:58;;;;;;;9.52;4.93;;;;;;;;;;4952464;28;20379;-70
2022/08/15 12:47:27;;;;;;;8.55;5.00;;;;;;;;;;4953898;28;20039;-71
2022/08/15 12:49:53;;;;;;;15.80;5.55;;;;;;;;;;4953351;29;20035;-71
2022/08/15 12:52:22;;;;;;;7.28;4.93;;;;;;;;;;4953239;29;20035;-66
2022/08/15 12:54:48;;;;;;;10.80;4.93;;;;;;;;;;4953840;29;20039;-64
2022/08/15 12:57:15;;;;;;;10.93;4.97;;;33.00;99.90;;;;;;4953865;29;20019;-72
2022/08/15 12:59:41;;;;;;;7.22;4.40;;;33.30;91.40;;;;;;4953504;28;20038;-73
2022/08/15 13:02:12;;;;;;;6.85;4.82;;;33.30;86.20;;;;;;4953860;28;20082;-71
2022/08/15 13:04:46;;;;;;;7.43;4.03;;;33.30;87.40;;;;;;4950693;28;20494;-70
2022/08/15 13:07:14;;;;;;;8.15;4.63;;;33.00;81.20;;;;;;4952455;28;20066;-70
2022/08/15 13:09:41;;;;;;;6.15;4.18;;;32.90;85.30;;;;;;4953052;28;20118;-72
2022/08/15 13:12:07;;;;;;;6.30;4.45;;;32.70;84.50;;;;;;4953126;28;20386;-73
2022/08/15 13:14:33;;;;;;;9.68;4.43;;;32.60;85.90;;;;;;4953078;28;20019;-72
2022/08/15 13:17:00;;;;;;;7.72;5.00;;;32.70;89.00;;;;;;4953181;28;20570;-72
2022/08/15 13:19:32;;;;;;;7.50;4.63;;;32.80;91.80;;;;;;4952408;28;20098;-75
2022/08/15 13:24:42;;;;;;;6.80;4.72;;;32.70;79.40;;;;;;4952506;28;20035;-73
2022/08/15 13:27:09;;;;;;;8.55;5.25;;;32.70;82.60;;;;;;4952488;28;20030;-72
2022/08/15 13:29:36;;;;;;;7.60;4.38;;;32.90;90.60;;;;;;4955615;28;20035;-71
2022/08/15 13:32:07;;;;;;;7.53;4.72;;;33.10;99.90;;;;;;4956212;28;20019;-74
2022/08/15 13:34:34;;;;;;;7.03;4.63;;;32.90;97.00;;;;;;4953777;28;20456;-73